sensor_id;sensor_type;location;lat;lon;timestamp;P1;durP1;ratioP1;P2;durP2;ratioP2
55987;SDS011;67216;50.930;4.514;2023-02-15T00:01:51;94.03;;;51.45;;
55987;SDS011;67216;50.930;4.514;2023-02-15T00:04:18;94.68;;;51.60;;
55987;SDS011;67216;50.930;4.514;2023-02-15T00:06:45;101.32;;;52.50;;
55987;SDS011;67216;50.930;4.514;2023-02-15T00:09:12;102.25;;;54.78;;
55987;SDS011;67216;50.930;4.514;2023-02-15T00:11:38;104.00;;;53.60;;
55987;SDS011;67216;50.930;4.514;2023-02-15T00:16:35;145.32;;;71.95;;
55987;SDS011;67216;50.930;4.514;2023-02-15T00:19:04;140.07;;;67.93;;
55987;SDS011;67216;50.930;4.514;2023-02-15T00:21:31;155.73;;;72.93;;
55987;SDS011;67216;50.930;4.514;2023-02-15T00:23:58;121.93;;;62.50;;
55987;SDS011;67216;50.930;4.514;2023-02-15T00:26:26;111.07;;;56.45;;
55987;SDS011;67216;50.930;4.514;2023-02-15T00:28:56;94.28;;;48.55;;
55987;SDS011;67216;50.930;4.514;2023-02-15T00:31:29;104.45;;;50.58;;
55987;SDS011;67216;50.930;4.514;2023-02-15T00:34:01;124.20;;;61.97;;
55987;SDS011;67216;50.930;4.514;2023-02-15T00:36:33;154.93;;;72.82;;
55987;SDS011;67216;50.930;4.514;2023-02-15T00:38:59;124.35;;;59.90;;
55987;SDS011;67216;50.930;4.514;2023-02-15T00:41:28;168.93;;;78.87;;
55987;SDS011;67216;50.930;4.514;2023-02-15T00:43:53;180.23;;;82.70;;
55987;SDS011;67216;50.930;4.514;2023-02-15T00:46:19;188.35;;;86.85;;
55987;SDS011;67216;50.930;4.514;2023-02-15T00:48:46;236.75;;;102.45;;
55987;SDS011;67216;50.930;4.514;2023-02-15T00:51:15;234.10;;;104.40;;
55987;SDS011;67216;50.930;4.514;2023-02-15T00:53:42;236.52;;;104.25;;
55987;SDS011;67216;50.930;4.514;2023-02-15T00:56:09;202.45;;;93.00;;
55987;SDS011;67216;50.930;4.514;2023-02-15T00:58:35;199.25;;;92.78;;
55987;SDS011;67216;50.930;4.514;2023-02-15T01:01:02;172.00;;;79.72;;
55987;SDS011;67216;50.930;4.514;2023-02-15T01:03:32;156.40;;;75.03;;
55987;SDS011;67216;50.930;4.514;2023-02-15T01:05:59;146.68;;;71.80;;
55987;SDS011;67216;50.930;4.514;2023-02-15T01:08:27;128.25;;;63.90;;
55987;SDS011;67216;50.930;4.514;2023-02-15T01:10:53;125.60;;;62.40;;
55987;SDS011;67216;50.930;4.514;2023-02-15T01:13:22;130.20;;;65.43;;
55987;SDS011;67216;50.930;4.514;2023-02-15T01:15:52;131.13;;;64.47;;
55987;SDS011;67216;50.930;4.514;2023-02-15T01:18:21;144.35;;;73.32;;
55987;SDS011;67216;50.930;4.514;2023-02-15T01:20:50;139.75;;;70.35;;
55987;SDS011;67216;50.930;4.514;2023-02-15T01:23:16;147.45;;;72.53;;
55987;SDS011;67216;50.930;4.514;2023-02-15T01:25:42;131.85;;;68.25;;
55987;SDS011;67216;50.930;4.514;2023-02-15T01:28:08;124.78;;;64.95;;
55987;SDS011;67216;50.930;4.514;2023-02-15T01:30:34;117.43;;;64.00;;
55987;SDS011;67216;50.930;4.514;2023-02-15T01:33:01;119.97;;;63.03;;
55987;SDS011;67216;50.930;4.514;2023-02-15T01:35:30;126.38;;;64.63;;
55987;SDS011;67216;50.930;4.514;2023-02-15T01:37:58;121.82;;;64.03;;
55987;SDS011;67216;50.930;4.514;2023-02-15T01:40:25;123.68;;;65.22;;
55987;SDS011;67216;50.930;4.514;2023-02-15T01:42:52;118.50;;;62.22;;
55987;SDS011;67216;50.930;4.514;2023-02-15T01:45:27;112.95;;;62.28;;
55987;SDS011;67216;50.930;4.514;2023-02-15T01:48:00;109.38;;;60.10;;
55987;SDS011;67216;50.930;4.514;2023-02-15T01:50:30;112.18;;;60.13;;
55987;SDS011;67216;50.930;4.514;2023-02-15T01:55:44;114.97;;;62.05;;
55987;SDS011;67216;50.930;4.514;2023-02-15T01:58:17;137.43;;;70.05;;
55987;SDS011;67216;50.930;4.514;2023-02-15T02:00:44;130.60;;;67.50;;
55987;SDS011;67216;50.930;4.514;2023-02-15T02:03:10;118.22;;;64.28;;
55987;SDS011;67216;50.930;4.514;2023-02-15T02:05:37;127.63;;;64.88;;
55987;SDS011;67216;50.930;4.514;2023-02-15T02:08:06;145.18;;;72.00;;
55987;SDS011;67216;50.930;4.514;2023-02-15T02:10:34;139.60;;;73.53;;
55987;SDS011;67216;50.930;4.514;2023-02-15T02:13:05;139.40;;;69.97;;
55987;SDS011;67216;50.930;4.514;2023-02-15T02:15:46;134.27;;;69.55;;
55987;SDS011;67216;50.930;4.514;2023-02-15T02:27:30;124.55;;;64.00;;
55987;SDS011;67216;50.930;4.514;2023-02-15T02:38:08;104.18;;;56.20;;
55987;SDS011;67216;50.930;4.514;2023-02-15T02:40:47;117.90;;;59.28;;
55987;SDS011;67216;50.930;4.514;2023-02-15T02:45:58;145.90;;;71.82;;
55987;SDS011;67216;50.930;4.514;2023-02-15T02:48:30;142.95;;;68.53;;
55987;SDS011;67216;50.930;4.514;2023-02-15T02:51:01;126.70;;;62.90;;
55987;SDS011;67216;50.930;4.514;2023-02-15T02:53:27;125.20;;;59.97;;
55987;SDS011;67216;50.930;4.514;2023-02-15T02:55:59;114.30;;;57.10;;
55987;SDS011;67216;50.930;4.514;2023-02-15T03:01:37;91.55;;;49.80;;
55987;SDS011;67216;50.930;4.514;2023-02-15T03:04:23;103.43;;;51.35;;
55987;SDS011;67216;50.930;4.514;2023-02-15T03:07:03;99.97;;;54.88;;
55987;SDS011;67216;50.930;4.514;2023-02-15T03:12:14;105.72;;;54.33;;
55987;SDS011;67216;50.930;4.514;2023-02-15T03:14:59;111.55;;;56.40;;
55987;SDS011;67216;50.930;4.514;2023-02-15T03:17:39;111.28;;;55.75;;
55987;SDS011;67216;50.930;4.514;2023-02-15T03:20:09;150.90;;;73.15;;
55987;SDS011;67216;50.930;4.514;2023-02-15T03:22:45;171.50;;;75.95;;
55987;SDS011;67216;50.930;4.514;2023-02-15T03:25:18;149.73;;;70.05;;
55987;SDS011;67216;50.930;4.514;2023-02-15T03:27:52;124.22;;;61.22;;
55987;SDS011;67216;50.930;4.514;2023-02-15T03:30:23;151.15;;;72.13;;
55987;SDS011;67216;50.930;4.514;2023-02-15T03:32:51;156.73;;;70.70;;
55987;SDS011;67216;50.930;4.514;2023-02-15T03:35:21;132.65;;;64.80;;
55987;SDS011;67216;50.930;4.514;2023-02-15T03:37:51;137.15;;;65.28;;
55987;SDS011;67216;50.930;4.514;2023-02-15T03:40:25;138.52;;;63.13;;
55987;SDS011;67216;50.930;4.514;2023-02-15T03:45:48;121.32;;;59.65;;
55987;SDS011;67216;50.930;4.514;2023-02-15T03:48:24;108.05;;;55.67;;
55987;SDS011;67216;50.930;4.514;2023-02-15T03:50:54;97.60;;;52.83;;
55987;SDS011;67216;50.930;4.514;2023-02-15T03:53:52;103.20;;;52.13;;
55987;SDS011;67216;50.930;4.514;2023-02-15T03:56:20;119.65;;;59.55;;
55987;SDS011;67216;50.930;4.514;2023-02-15T03:58:46;125.10;;;61.42;;
55987;SDS011;67216;50.930;4.514;2023-02-15T04:04:18;144.52;;;67.85;;
55987;SDS011;67216;50.930;4.514;2023-02-15T04:06:46;129.23;;;63.35;;
55987;SDS011;67216;50.930;4.514;2023-02-15T04:09:15;175.48;;;80.45;;
55987;SDS011;67216;50.930;4.514;2023-02-15T04:11:59;163.10;;;76.00;;
55987;SDS011;67216;50.930;4.514;2023-02-15T04:14:27;135.13;;;65.20;;
55987;SDS011;67216;50.930;4.514;2023-02-15T04:17:11;115.50;;;58.70;;
55987;SDS011;67216;50.930;4.514;2023-02-15T04:19:39;91.22;;;45.15;;
55987;SDS011;67216;50.930;4.514;2023-02-15T04:22:26;116.65;;;58.63;;
55987;SDS011;67216;50.930;4.514;2023-02-15T04:25:10;134.05;;;64.78;;
55987;SDS011;67216;50.930;4.514;2023-02-15T04:27:40;168.97;;;77.70;;
55987;SDS011;67216;50.930;4.514;2023-02-15T04:30:13;152.85;;;71.57;;
55987;SDS011;67216;50.930;4.514;2023-02-15T04:32:43;120.28;;;60.60;;
55987;SDS011;67216;50.930;4.514;2023-02-15T04:35:15;122.47;;;62.67;;
55987;SDS011;67216;50.930;4.514;2023-02-15T04:37:44;132.15;;;62.20;;
55987;SDS011;67216;50.930;4.514;2023-02-15T04:40:13;123.35;;;61.28;;
55987;SDS011;67216;50.930;4.514;2023-02-15T04:42:40;151.05;;;67.10;;
55987;SDS011;67216;50.930;4.514;2023-02-15T04:45:06;158.52;;;70.88;;
55987;SDS011;67216;50.930;4.514;2023-02-15T04:47:32;137.32;;;67.00;;
55987;SDS011;67216;50.930;4.514;2023-02-15T04:49:58;173.18;;;75.55;;
55987;SDS011;67216;50.930;4.514;2023-02-15T04:52:24;156.70;;;72.22;;
55987;SDS011;67216;50.930;4.514;2023-02-15T04:54:50;122.10;;;62.42;;
55987;SDS011;67216;50.930;4.514;2023-02-15T04:57:16;120.28;;;60.75;;
55987;SDS011;67216;50.930;4.514;2023-02-15T04:59:42;120.63;;;60.33;;
55987;SDS011;67216;50.930;4.514;2023-02-15T05:02:08;132.75;;;63.38;;
55987;SDS011;67216;50.930;4.514;2023-02-15T05:04:33;130.55;;;65.70;;
55987;SDS011;67216;50.930;4.514;2023-02-15T05:06:59;126.65;;;62.47;;
55987;SDS011;67216;50.930;4.514;2023-02-15T05:09:25;133.20;;;64.10;;
55987;SDS011;67216;50.930;4.514;2023-02-15T05:11:50;127.90;;;63.10;;
55987;SDS011;67216;50.930;4.514;2023-02-15T05:14:19;141.73;;;65.55;;
55987;SDS011;67216;50.930;4.514;2023-02-15T05:16:44;122.63;;;62.15;;
55987;SDS011;67216;50.930;4.514;2023-02-15T05:19:13;113.07;;;57.67;;
55987;SDS011;67216;50.930;4.514;2023-02-15T05:21:39;110.78;;;54.13;;
55987;SDS011;67216;50.930;4.514;2023-02-15T05:24:04;100.18;;;53.58;;
55987;SDS011;67216;50.930;4.514;2023-02-15T05:26:50;110.28;;;55.53;;
55987;SDS011;67216;50.930;4.514;2023-02-15T05:29:35;132.77;;;66.78;;
55987;SDS011;67216;50.930;4.514;2023-02-15T05:32:02;123.45;;;60.03;;
55987;SDS011;67216;50.930;4.514;2023-02-15T05:34:29;110.63;;;57.95;;
55987;SDS011;67216;50.930;4.514;2023-02-15T05:36:54;105.57;;;56.05;;
55987;SDS011;67216;50.930;4.514;2023-02-15T05:39:20;108.80;;;57.30;;
55987;SDS011;67216;50.930;4.514;2023-02-15T05:41:46;106.70;;;55.35;;
55987;SDS011;67216;50.930;4.514;2023-02-15T05:44:14;101.97;;;55.38;;
55987;SDS011;67216;50.930;4.514;2023-02-15T05:46:40;117.38;;;61.22;;
55987;SDS011;67216;50.930;4.514;2023-02-15T05:49:05;108.72;;;59.30;;
55987;SDS011;67216;50.930;4.514;2023-02-15T05:51:31;114.40;;;62.05;;
55987;SDS011;67216;50.930;4.514;2023-02-15T05:54:00;113.82;;;61.25;;
55987;SDS011;67216;50.930;4.514;2023-02-15T05:56:25;111.57;;;59.15;;
55987;SDS011;67216;50.930;4.514;2023-02-15T05:58:52;128.93;;;60.90;;
55987;SDS011;67216;50.930;4.514;2023-02-15T06:01:19;112.35;;;59.38;;
55987;SDS011;67216;50.930;4.514;2023-02-15T06:03:47;116.03;;;58.53;;
55987;SDS011;67216;50.930;4.514;2023-02-15T06:06:12;115.85;;;56.78;;
55987;SDS011;67216;50.930;4.514;2023-02-15T06:08:38;111.35;;;57.17;;
55987;SDS011;67216;50.930;4.514;2023-02-15T06:11:06;103.03;;;53.72;;
55987;SDS011;67216;50.930;4.514;2023-02-15T06:13:33;117.05;;;58.20;;
55987;SDS011;67216;50.930;4.514;2023-02-15T06:16:01;117.10;;;58.05;;
55987;SDS011;67216;50.930;4.514;2023-02-15T06:18:27;115.70;;;59.92;;
55987;SDS011;67216;50.930;4.514;2023-02-15T06:20:55;99.50;;;53.75;;
55987;SDS011;67216;50.930;4.514;2023-02-15T06:23:21;113.88;;;56.90;;
55987;SDS011;67216;50.930;4.514;2023-02-15T06:25:49;105.85;;;54.75;;
55987;SDS011;67216;50.930;4.514;2023-02-15T06:28:15;110.50;;;57.03;;
55987;SDS011;67216;50.930;4.514;2023-02-15T06:30:40;114.45;;;57.13;;
55987;SDS011;67216;50.930;4.514;2023-02-15T06:33:06;120.25;;;60.88;;
55987;SDS011;67216;50.930;4.514;2023-02-15T06:35:34;104.25;;;54.50;;
55987;SDS011;67216;50.930;4.514;2023-02-15T06:38:02;114.88;;;56.70;;
55987;SDS011;67216;50.930;4.514;2023-02-15T06:40:30;112.57;;;59.78;;
55987;SDS011;67216;50.930;4.514;2023-02-15T06:42:56;139.05;;;66.40;;
55987;SDS011;67216;50.930;4.514;2023-02-15T06:45:21;127.45;;;61.78;;
55987;SDS011;67216;50.930;4.514;2023-02-15T06:47:47;130.65;;;64.47;;
55987;SDS011;67216;50.930;4.514;2023-02-15T06:50:13;126.55;;;62.85;;
55987;SDS011;67216;50.930;4.514;2023-02-15T06:52:38;158.73;;;77.95;;
55987;SDS011;67216;50.930;4.514;2023-02-15T06:55:04;231.68;;;78.00;;
55987;SDS011;67216;50.930;4.514;2023-02-15T06:57:31;182.63;;;83.00;;
55987;SDS011;67216;50.930;4.514;2023-02-15T07:00:02;145.40;;;68.23;;
55987;SDS011;67216;50.930;4.514;2023-02-15T07:02:31;166.30;;;79.85;;
55987;SDS011;67216;50.930;4.514;2023-02-15T07:04:57;150.48;;;76.30;;
55987;SDS011;67216;50.930;4.514;2023-02-15T07:07:23;193.63;;;89.57;;
55987;SDS011;67216;50.930;4.514;2023-02-15T07:09:51;185.30;;;86.70;;
55987;SDS011;67216;50.930;4.514;2023-02-15T07:12:17;177.25;;;87.53;;
55987;SDS011;67216;50.930;4.514;2023-02-15T07:15:01;149.30;;;76.13;;
55987;SDS011;67216;50.930;4.514;2023-02-15T07:17:29;131.25;;;67.68;;
55987;SDS011;67216;50.930;4.514;2023-02-15T07:19:56;143.57;;;70.00;;
55987;SDS011;67216;50.930;4.514;2023-02-15T07:22:22;127.05;;;68.50;;
55987;SDS011;67216;50.930;4.514;2023-02-15T07:24:48;112.80;;;58.63;;
55987;SDS011;67216;50.930;4.514;2023-02-15T07:27:14;108.05;;;54.47;;
55987;SDS011;67216;50.930;4.514;2023-02-15T07:29:42;90.07;;;49.03;;
55987;SDS011;67216;50.930;4.514;2023-02-15T07:32:08;100.05;;;53.00;;
55987;SDS011;67216;50.930;4.514;2023-02-15T07:34:34;81.72;;;48.58;;
55987;SDS011;67216;50.930;4.514;2023-02-15T07:37:02;80.10;;;47.00;;
55987;SDS011;67216;50.930;4.514;2023-02-15T07:39:30;84.05;;;48.45;;
55987;SDS011;67216;50.930;4.514;2023-02-15T07:41:56;89.97;;;50.60;;
55987;SDS011;67216;50.930;4.514;2023-02-15T07:44:22;88.10;;;48.85;;
55987;SDS011;67216;50.930;4.514;2023-02-15T07:46:50;84.93;;;48.67;;
55987;SDS011;67216;50.930;4.514;2023-02-15T07:49:16;78.38;;;45.05;;
55987;SDS011;67216;50.930;4.514;2023-02-15T07:51:44;79.97;;;45.30;;
55987;SDS011;67216;50.930;4.514;2023-02-15T07:54:11;76.05;;;42.63;;
55987;SDS011;67216;50.930;4.514;2023-02-15T07:56:36;71.38;;;42.53;;
55987;SDS011;67216;50.930;4.514;2023-02-15T07:59:02;63.47;;;39.00;;
55987;SDS011;67216;50.930;4.514;2023-02-15T08:01:35;62.95;;;37.97;;
55987;SDS011;67216;50.930;4.514;2023-02-15T08:04:02;59.28;;;38.63;;
55987;SDS011;67216;50.930;4.514;2023-02-15T08:06:30;58.85;;;36.42;;
55987;SDS011;67216;50.930;4.514;2023-02-15T08:09:00;54.15;;;35.20;;
55987;SDS011;67216;50.930;4.514;2023-02-15T08:11:29;57.47;;;34.85;;
55987;SDS011;67216;50.930;4.514;2023-02-15T08:16:44;56.28;;;35.50;;
55987;SDS011;67216;50.930;4.514;2023-02-15T08:19:21;63.00;;;36.00;;
55987;SDS011;67216;50.930;4.514;2023-02-15T08:21:50;59.45;;;36.55;;
55987;SDS011;67216;50.930;4.514;2023-02-15T08:26:45;61.03;;;36.30;;
55987;SDS011;67216;50.930;4.514;2023-02-15T08:29:12;66.70;;;36.67;;
55987;SDS011;67216;50.930;4.514;2023-02-15T08:31:40;60.17;;;36.05;;
55987;SDS011;67216;50.930;4.514;2023-02-15T08:34:07;56.72;;;35.72;;
55987;SDS011;67216;50.930;4.514;2023-02-15T08:36:34;58.05;;;35.65;;
55987;SDS011;67216;50.930;4.514;2023-02-15T08:39:03;55.47;;;33.40;;
55987;SDS011;67216;50.930;4.514;2023-02-15T08:41:32;56.88;;;33.42;;
55987;SDS011;67216;50.930;4.514;2023-02-15T08:44:02;52.75;;;31.80;;
55987;SDS011;67216;50.930;4.514;2023-02-15T08:46:33;59.97;;;32.25;;
55987;SDS011;67216;50.930;4.514;2023-02-15T08:49:00;51.17;;;32.35;;
55987;SDS011;67216;50.930;4.514;2023-02-15T08:51:28;48.60;;;32.67;;
55987;SDS011;67216;50.930;4.514;2023-02-15T08:53:57;49.17;;;32.63;;
55987;SDS011;67216;50.930;4.514;2023-02-15T08:56:28;52.00;;;33.30;;
55987;SDS011;67216;50.930;4.514;2023-02-15T08:58:56;49.03;;;32.47;;
55987;SDS011;67216;50.930;4.514;2023-02-15T09:01:23;54.78;;;35.00;;
55987;SDS011;67216;50.930;4.514;2023-02-15T09:03:58;52.83;;;35.55;;
55987;SDS011;67216;50.930;4.514;2023-02-15T09:06:52;49.17;;;33.20;;
55987;SDS011;67216;50.930;4.514;2023-02-15T09:09:18;51.42;;;32.53;;
55987;SDS011;67216;50.930;4.514;2023-02-15T09:11:49;55.47;;;32.93;;
55987;SDS011;67216;50.930;4.514;2023-02-15T09:14:17;53.15;;;33.15;;
55987;SDS011;67216;50.930;4.514;2023-02-15T09:16:45;53.60;;;34.37;;
55987;SDS011;67216;50.930;4.514;2023-02-15T09:19:13;50.22;;;32.63;;
55987;SDS011;67216;50.930;4.514;2023-02-15T09:21:40;51.47;;;32.33;;
55987;SDS011;67216;50.930;4.514;2023-02-15T09:24:07;52.45;;;31.08;;
55987;SDS011;67216;50.930;4.514;2023-02-15T09:26:36;51.35;;;30.67;;
55987;SDS011;67216;50.930;4.514;2023-02-15T09:29:08;49.75;;;30.30;;
55987;SDS011;67216;50.930;4.514;2023-02-15T09:31:43;45.88;;;29.00;;
55987;SDS011;67216;50.930;4.514;2023-02-15T09:36:42;49.03;;;29.80;;
55987;SDS011;67216;50.930;4.514;2023-02-15T09:39:24;46.55;;;28.65;;
55987;SDS011;67216;50.930;4.514;2023-02-15T09:44:58;41.95;;;28.17;;
55987;SDS011;67216;50.930;4.514;2023-02-15T09:53:33;42.38;;;26.55;;
55987;SDS011;67216;50.930;4.514;2023-02-15T09:56:05;44.00;;;28.08;;
55987;SDS011;67216;50.930;4.514;2023-02-15T10:01:25;50.95;;;30.10;;
55987;SDS011;67216;50.930;4.514;2023-02-15T10:15:40;49.40;;;29.55;;
55987;SDS011;67216;50.930;4.514;2023-02-15T10:20:55;47.75;;;29.17;;
55987;SDS011;67216;50.930;4.514;2023-02-15T10:26:12;52.83;;;29.70;;
55987;SDS011;67216;50.930;4.514;2023-02-15T10:31:25;46.67;;;28.70;;
55987;SDS011;67216;50.930;4.514;2023-02-15T10:36:53;45.42;;;28.13;;
55987;SDS011;67216;50.930;4.514;2023-02-15T10:45:26;49.63;;;25.38;;
55987;SDS011;67216;50.930;4.514;2023-02-15T10:53:17;47.38;;;25.50;;
55987;SDS011;67216;50.930;4.514;2023-02-15T11:06:50;47.20;;;24.33;;
55987;SDS011;67216;50.930;4.514;2023-02-15T11:09:23;42.20;;;24.73;;
55987;SDS011;67216;50.930;4.514;2023-02-15T11:11:55;45.33;;;24.02;;
55987;SDS011;67216;50.930;4.514;2023-02-15T11:16:59;43.42;;;24.77;;
55987;SDS011;67216;50.930;4.514;2023-02-15T11:19:37;44.55;;;24.25;;
55987;SDS011;67216;50.930;4.514;2023-02-15T11:22:17;44.47;;;24.60;;
55987;SDS011;67216;50.930;4.514;2023-02-15T11:24:46;41.97;;;25.13;;
55987;SDS011;67216;50.930;4.514;2023-02-15T11:27:20;44.67;;;25.80;;
55987;SDS011;67216;50.930;4.514;2023-02-15T11:29:53;41.92;;;24.80;;
55987;SDS011;67216;50.930;4.514;2023-02-15T11:32:35;44.42;;;25.48;;
55987;SDS011;67216;50.930;4.514;2023-02-15T11:37:40;45.80;;;26.17;;
55987;SDS011;67216;50.930;4.514;2023-02-15T11:40:28;43.00;;;25.45;;
55987;SDS011;67216;50.930;4.514;2023-02-15T11:43:10;45.35;;;25.25;;
55987;SDS011;67216;50.930;4.514;2023-02-15T11:45:42;40.90;;;24.52;;
55987;SDS011;67216;50.930;4.514;2023-02-15T11:48:15;45.08;;;24.95;;
55987;SDS011;67216;50.930;4.514;2023-02-15T11:50:44;43.85;;;24.45;;
55987;SDS011;67216;50.930;4.514;2023-02-15T11:53:20;44.80;;;25.67;;
55987;SDS011;67216;50.930;4.514;2023-02-15T11:55:52;42.63;;;24.92;;
55987;SDS011;67216;50.930;4.514;2023-02-15T12:00:56;43.97;;;25.08;;
55987;SDS011;67216;50.930;4.514;2023-02-15T12:06:05;43.67;;;25.90;;
55987;SDS011;67216;50.930;4.514;2023-02-15T12:08:39;42.88;;;25.50;;
55987;SDS011;67216;50.930;4.514;2023-02-15T12:11:12;41.20;;;25.27;;
55987;SDS011;67216;50.930;4.514;2023-02-15T12:14:04;46.85;;;24.90;;
55987;SDS011;67216;50.930;4.514;2023-02-15T12:22:02;42.42;;;26.00;;
55987;SDS011;67216;50.930;4.514;2023-02-15T12:24:33;44.33;;;26.85;;
55987;SDS011;67216;50.930;4.514;2023-02-15T12:27:10;46.00;;;28.00;;
55987;SDS011;67216;50.930;4.514;2023-02-15T12:30:13;42.28;;;25.30;;
55987;SDS011;67216;50.930;4.514;2023-02-15T12:35:40;45.70;;;26.67;;
55987;SDS011;67216;50.930;4.514;2023-02-15T12:40:36;48.88;;;29.85;;
55987;SDS011;67216;50.930;4.514;2023-02-15T12:43:08;55.53;;;31.48;;
55987;SDS011;67216;50.930;4.514;2023-02-15T12:46:21;52.60;;;31.08;;
55987;SDS011;67216;50.930;4.514;2023-02-15T12:49:17;53.15;;;30.65;;
55987;SDS011;67216;50.930;4.514;2023-02-15T12:54:55;49.90;;;30.08;;
55987;SDS011;67216;50.930;4.514;2023-02-15T13:08:47;46.85;;;26.85;;
55987;SDS011;67216;50.930;4.514;2023-02-15T13:10:57;41.53;;;25.42;;
55987;SDS011;67216;50.930;4.514;2023-02-15T13:13:31;44.00;;;26.48;;
55987;SDS011;67216;50.930;4.514;2023-02-15T13:16:00;48.35;;;26.70;;
55987;SDS011;67216;50.930;4.514;2023-02-15T13:18:43;44.53;;;26.23;;
55987;SDS011;67216;50.930;4.514;2023-02-15T13:23:43;43.20;;;26.33;;
55987;SDS011;67216;50.930;4.514;2023-02-15T13:26:16;46.42;;;26.92;;
55987;SDS011;67216;50.930;4.514;2023-02-15T13:28:52;45.95;;;26.65;;
55987;SDS011;67216;50.930;4.514;2023-02-15T13:31:24;47.20;;;26.90;;
55987;SDS011;67216;50.930;4.514;2023-02-15T13:34:00;46.30;;;26.38;;
55987;SDS011;67216;50.930;4.514;2023-02-15T13:42:18;45.47;;;27.17;;
55987;SDS011;67216;50.930;4.514;2023-02-15T13:55:55;44.83;;;26.85;;
55987;SDS011;67216;50.930;4.514;2023-02-15T14:06:14;44.45;;;27.00;;
55987;SDS011;67216;50.930;4.514;2023-02-15T14:11:38;43.85;;;27.80;;
55987;SDS011;67216;50.930;4.514;2023-02-15T14:20:02;41.53;;;27.77;;
55987;SDS011;67216;50.930;4.514;2023-02-15T14:22:57;50.53;;;29.15;;
55987;SDS011;67216;50.930;4.514;2023-02-15T14:25:54;48.78;;;27.80;;
55987;SDS011;67216;50.930;4.514;2023-02-15T14:28:31;46.33;;;28.23;;
55987;SDS011;67216;50.930;4.514;2023-02-15T14:31:07;42.53;;;28.40;;
55987;SDS011;67216;50.930;4.514;2023-02-15T14:33:40;42.42;;;27.58;;
55987;SDS011;67216;50.930;4.514;2023-02-15T14:36:12;41.67;;;27.38;;
55987;SDS011;67216;50.930;4.514;2023-02-15T14:41:29;45.05;;;27.70;;
55987;SDS011;67216;50.930;4.514;2023-02-15T14:49:30;43.72;;;29.27;;
55987;SDS011;67216;50.930;4.514;2023-02-15T14:52:19;47.90;;;29.63;;
55987;SDS011;67216;50.930;4.514;2023-02-15T15:04:38;52.72;;;31.95;;
55987;SDS011;67216;50.930;4.514;2023-02-15T15:07:18;52.03;;;31.88;;
55987;SDS011;67216;50.930;4.514;2023-02-15T15:15:34;51.88;;;32.00;;
55987;SDS011;67216;50.930;4.514;2023-02-15T15:18:09;52.90;;;33.63;;
55987;SDS011;67216;50.930;4.514;2023-02-15T15:20:55;57.35;;;33.40;;
55987;SDS011;67216;50.930;4.514;2023-02-15T15:25:59;56.13;;;35.38;;
55987;SDS011;67216;50.930;4.514;2023-02-15T15:50:53;58.42;;;35.17;;
55987;SDS011;67216;50.930;4.514;2023-02-15T15:53:25;51.78;;;34.47;;
55987;SDS011;67216;50.930;4.514;2023-02-15T15:55:56;52.38;;;33.45;;
55987;SDS011;67216;50.930;4.514;2023-02-15T15:58:33;55.83;;;36.25;;
55987;SDS011;67216;50.930;4.514;2023-02-15T16:03:47;58.47;;;35.42;;
55987;SDS011;67216;50.930;4.514;2023-02-15T16:06:25;59.80;;;37.15;;
55987;SDS011;67216;50.930;4.514;2023-02-15T16:08:52;59.85;;;37.75;;
55987;SDS011;67216;50.930;4.514;2023-02-15T16:11:21;61.05;;;38.25;;
55987;SDS011;67216;50.930;4.514;2023-02-15T16:13:49;61.13;;;37.28;;
55987;SDS011;67216;50.930;4.514;2023-02-15T16:16:22;64.00;;;38.20;;
55987;SDS011;67216;50.930;4.514;2023-02-15T16:18:52;61.50;;;37.83;;
55987;SDS011;67216;50.930;4.514;2023-02-15T16:21:21;62.83;;;38.50;;
55987;SDS011;67216;50.930;4.514;2023-02-15T16:23:55;58.63;;;37.22;;
55987;SDS011;67216;50.930;4.514;2023-02-15T16:29:27;59.55;;;38.58;;
55987;SDS011;67216;50.930;4.514;2023-02-15T16:32:02;59.97;;;37.80;;
55987;SDS011;67216;50.930;4.514;2023-02-15T16:34:49;59.75;;;39.00;;
55987;SDS011;67216;50.930;4.514;2023-02-15T16:37:19;64.65;;;39.53;;
55987;SDS011;67216;50.930;4.514;2023-02-15T16:42:15;65.45;;;39.38;;
55987;SDS011;67216;50.930;4.514;2023-02-15T16:44:42;64.47;;;39.40;;
55987;SDS011;67216;50.930;4.514;2023-02-15T16:47:16;67.85;;;40.50;;
55987;SDS011;67216;50.930;4.514;2023-02-15T16:49:48;69.78;;;40.10;;
55987;SDS011;67216;50.930;4.514;2023-02-15T16:52:22;65.78;;;39.05;;
55987;SDS011;67216;50.930;4.514;2023-02-15T16:54:59;67.75;;;39.17;;
55987;SDS011;67216;50.930;4.514;2023-02-15T16:57:35;68.77;;;41.27;;
55987;SDS011;67216;50.930;4.514;2023-02-15T17:00:04;71.53;;;44.67;;
55987;SDS011;67216;50.930;4.514;2023-02-15T17:02:33;81.75;;;50.95;;
55987;SDS011;67216;50.930;4.514;2023-02-15T17:05:18;74.38;;;44.95;;
55987;SDS011;67216;50.930;4.514;2023-02-15T17:07:49;65.82;;;41.60;;
55987;SDS011;67216;50.930;4.514;2023-02-15T17:13:02;68.70;;;45.03;;
55987;SDS011;67216;50.930;4.514;2023-02-15T17:18:08;71.72;;;43.60;;
55987;SDS011;67216;50.930;4.514;2023-02-15T17:20:38;74.20;;;43.10;;
55987;SDS011;67216;50.930;4.514;2023-02-15T17:23:07;71.03;;;42.00;;
55987;SDS011;67216;50.930;4.514;2023-02-15T17:25:48;74.05;;;43.75;;
55987;SDS011;67216;50.930;4.514;2023-02-15T17:28:18;67.88;;;41.70;;
55987;SDS011;67216;50.930;4.514;2023-02-15T17:30:51;94.18;;;44.35;;
55987;SDS011;67216;50.930;4.514;2023-02-15T17:38:41;68.25;;;40.45;;
55987;SDS011;67216;50.930;4.514;2023-02-15T17:41:33;65.28;;;40.15;;
55987;SDS011;67216;50.930;4.514;2023-02-15T17:44:01;67.75;;;42.20;;
55987;SDS011;67216;50.930;4.514;2023-02-15T17:46:30;76.55;;;45.67;;
55987;SDS011;67216;50.930;4.514;2023-02-15T17:49:01;91.85;;;51.22;;
55987;SDS011;67216;50.930;4.514;2023-02-15T17:51:30;74.97;;;43.72;;
55987;SDS011;67216;50.930;4.514;2023-02-15T17:54:00;75.78;;;45.03;;
55987;SDS011;67216;50.930;4.514;2023-02-15T17:56:47;71.45;;;44.38;;
55987;SDS011;67216;50.930;4.514;2023-02-15T17:59:15;68.88;;;42.17;;
55987;SDS011;67216;50.930;4.514;2023-02-15T18:01:45;72.82;;;42.78;;
55987;SDS011;67216;50.930;4.514;2023-02-15T18:04:33;77.90;;;43.70;;
55987;SDS011;67216;50.930;4.514;2023-02-15T18:07:21;74.45;;;43.67;;
55987;SDS011;67216;50.930;4.514;2023-02-15T18:10:18;70.10;;;43.28;;
55987;SDS011;67216;50.930;4.514;2023-02-15T18:13:04;74.15;;;44.72;;
55987;SDS011;67216;50.930;4.514;2023-02-15T18:15:31;70.82;;;44.10;;
55987;SDS011;67216;50.930;4.514;2023-02-15T18:17:57;75.32;;;45.03;;
55987;SDS011;67216;50.930;4.514;2023-02-15T18:20:33;79.50;;;46.37;;
55987;SDS011;67216;50.930;4.514;2023-02-15T18:23:09;72.70;;;44.55;;
55987;SDS011;67216;50.930;4.514;2023-02-15T18:25:42;73.10;;;45.88;;
55987;SDS011;67216;50.930;4.514;2023-02-15T18:28:11;74.80;;;44.80;;
55987;SDS011;67216;50.930;4.514;2023-02-15T18:30:38;70.57;;;45.30;;
55987;SDS011;67216;50.930;4.514;2023-02-15T18:33:09;73.13;;;44.58;;
55987;SDS011;67216;50.930;4.514;2023-02-15T18:36:02;71.57;;;44.20;;
55987;SDS011;67216;50.930;4.514;2023-02-15T18:38:30;72.73;;;45.50;;
55987;SDS011;67216;50.930;4.514;2023-02-15T18:40:56;72.07;;;44.63;;